»·PEaware :: SWA2428 KSNA-KOAK

SWA2428 :: KSNA-KOAK

FLIGHT INFORMATION

Flight Status: Arrived
Operator:
Southwest Airlines
More flights by this operator :: More flights under this callsign
Pilot: Ben F. (2808)
Aircraft: BOEING 737-300
(B733)
More flights by this aircraft type
Origin: KSNA John Wayne-Orange Co
United States
Destination: KOAK Metro Oakland Intl
United States
More flights between these airports :: More routes between these airports
Route: HHERO3 OROSZ COREZ RGOOD EMZOH3
File this flight plan on PilotEdge
Remarks:
Altitude:
(Current/Filed)
34,000ft
Speed:
(Current/Filed)
433kts
Departed: 23-Feb-21 09:00 AM
Arrived: 23-Feb-21 10:02 AM
Distance/Time
Traveled:
322nm/1:01
Distance/Time
To Go:
Arrived

Flight Plot

Page will automatically refresh every two minutes.

Flight plan parsing failed; only flown route is shown


Map Options




Map Legend


Flown Route
Filed Route
Departure Airport
Arrival Airport
Navaid (VOR, NDB)
Fix

Horizontal Profiles

Position Reports

Time Latitude Longitude Heading Altitude Ground
Speed
23-Feb-21 08:48 33.675588 -117.864703 117 63ft 0kts
23-Feb-21 08:50 33.675588 -117.864703 117 63ft 0kts
23-Feb-21 08:51 33.675588 -117.864703 117 63ft 0kts
23-Feb-21 08:52 33.675588 -117.864703 117 63ft 0kts
23-Feb-21 08:53 33.675588 -117.864703 117 63ft 0kts
23-Feb-21 08:54 33.675742 -117.865056 117 63ft 0kts
23-Feb-21 08:55 33.675660 -117.865533 42 63ft 0kts
23-Feb-21 08:56 33.675660 -117.865533 42 63ft 0kts
23-Feb-21 08:57 33.675724 -117.865462 41 63ft 2kts
23-Feb-21 08:58 33.679453 -117.863063 27 63ft 20kts
23-Feb-21 08:59 33.681086 -117.864033 297 63ft 11kts
23-Feb-21 09:00 33.680472 -117.865806 207 63ft 43kts
23-Feb-21 09:01 33.643848 -117.884513 193 1465ft 182kts
23-Feb-21 09:02 33.588643 -117.896435 186 3313ft 232kts
23-Feb-21 09:03 33.531011 -117.945128 224 5698ft 269kts
23-Feb-21 09:04 33.515562 -118.030381 271 8588ft 276kts
23-Feb-21 09:05 33.517030 -118.126393 270 10857ft 308kts
23-Feb-21 09:06 33.518508 -118.235647 270 12777ft 338kts
23-Feb-21 09:07 33.519961 -118.350323 270 14846ft 350kts
23-Feb-21 09:08 33.543515 -118.463090 317 17076ft 370kts
23-Feb-21 09:09 33.643246 -118.478196 10 19161ft 386kts
23-Feb-21 09:10 33.752198 -118.458896 359 21109ft 401kts
23-Feb-21 09:11 33.865738 -118.459588 359 22885ft 415kts
23-Feb-21 09:11 33.963561 -118.459723 359 24270ft 427kts
23-Feb-21 09:13 34.096969 -118.507903 336 26173ft 435kts
23-Feb-21 09:14 34.210410 -118.565640 336 27628ft 445kts
23-Feb-21 09:15 34.325913 -118.624349 336 29309ft 444kts
23-Feb-21 09:16 34.440613 -118.683207 328 30811ft 442kts
23-Feb-21 09:16 34.528991 -118.746473 328 32061ft 438kts
23-Feb-21 09:17 34.635300 -118.821734 328 33330ft 435kts
23-Feb-21 09:18 34.740845 -118.896619 328 34155ft 438kts
23-Feb-21 09:20 34.863443 -118.983877 328 34184ft 434kts
23-Feb-21 09:20 34.950290 -119.045877 328 34187ft 434kts
23-Feb-21 09:21 35.053893 -119.120039 328 34186ft 432kts
23-Feb-21 09:22 35.157262 -119.194087 329 34181ft 431kts
23-Feb-21 09:23 35.260542 -119.268413 329 34186ft 430kts
23-Feb-21 09:24 35.362962 -119.342384 329 34186ft 428kts
23-Feb-21 09:25 35.465935 -119.416976 329 34206ft 427kts
23-Feb-21 09:26 35.566921 -119.492464 321 34212ft 424kts
23-Feb-21 09:27 35.656875 -119.585858 321 34224ft 425kts
23-Feb-21 09:28 35.747712 -119.678862 321 34205ft 424kts
23-Feb-21 09:29 35.838087 -119.771652 321 34226ft 424kts
23-Feb-21 09:30 35.927338 -119.865846 317 34226ft 423kts
23-Feb-21 09:31 36.012148 -119.967067 317 34230ft 423kts
23-Feb-21 09:32 36.097341 -120.068397 317 34229ft 423kts
23-Feb-21 09:33 36.182739 -120.169739 317 34226ft 423kts
23-Feb-21 09:34 36.267491 -120.270892 317 34220ft 422kts
23-Feb-21 09:35 36.352064 -120.372164 317 34222ft 421kts
23-Feb-21 09:36 36.436728 -120.473868 317 34221ft 420kts
23-Feb-21 09:37 36.520691 -120.575052 316 34223ft 419kts
23-Feb-21 09:38 36.606787 -120.672556 318 33108ft 419kts
23-Feb-21 09:39 36.693438 -120.768714 318 31082ft 419kts
23-Feb-21 09:40 36.780793 -120.865796 318 28587ft 416kts
23-Feb-21 09:41 36.866284 -120.960704 318 26067ft 401kts
23-Feb-21 09:42 36.949376 -121.052972 318 23537ft 389kts
23-Feb-21 09:43 37.029684 -121.142412 318 21002ft 374kts
23-Feb-21 09:44 37.106030 -121.227676 319 18463ft 356kts
23-Feb-21 09:45 37.178513 -121.310815 319 15913ft 342kts
23-Feb-21 09:46 37.246949 -121.390397 320 13399ft 327kts
23-Feb-21 09:47 37.311992 -121.466156 322 11190ft 305kts
23-Feb-21 09:48 37.370503 -121.534459 323 10139ft 270kts
23-Feb-21 09:49 37.426575 -121.598827 324 8894ft 263kts
23-Feb-21 09:50 37.473243 -121.672405 310 7395ft 277kts
23-Feb-21 09:51 37.516677 -121.748852 311 6270ft 254kts
23-Feb-21 09:52 37.538196 -121.831777 284 5521ft 252kts
23-Feb-21 09:53 37.548242 -121.917802 284 4314ft 242kts
23-Feb-21 09:54 37.558235 -121.996612 300 4117ft 210kts
23-Feb-21 09:55 37.583608 -122.041514 321 3678ft 166kts
23-Feb-21 09:56 37.613926 -122.083104 318 2727ft 157kts
23-Feb-21 09:57 37.639009 -122.120545 317 1957ft 134kts
23-Feb-21 09:58 37.659964 -122.151383 312 1328ft 147kts
23-Feb-21 09:59 37.685589 -122.190812 316 521ft 143kts
23-Feb-21 10:00 37.710873 -122.228344 310 14ft 74kts
23-Feb-21 10:01 37.714576 -122.230140 131 14ft 9kts
23-Feb-21 10:02 37.712064 -122.226293 118 14ft 19kts
23-Feb-21 10:03 37.711503 -122.219778 128 14ft 26kts
23-Feb-21 10:04 37.709186 -122.215215 80 14ft 5kts
23-Feb-21 10:05 37.710657 -122.213362 49 14ft 11kts
23-Feb-21 10:06 37.710842 -122.212929 65 14ft 0kts
23-Feb-21 10:07 37.710842 -122.212929 65 14ft 0kts

Navigation Log

Ident Type
Flight plan parsing failed, navigation log unavailable